createdAt,value
2023-04-03T00:00:25.715Z,48.28
2023-04-03T00:01:29.368Z,48.28
2023-04-03T00:02:33.539Z,47.94
2023-04-03T00:03:38.140Z,47.97
2023-04-03T00:04:42.068Z,47.42
2023-04-03T00:05:45.942Z,47.55
2023-04-03T00:06:49.603Z,47.77
2023-04-03T00:07:53.243Z,47.57
2023-04-03T00:08:58.511Z,47.20
2023-04-03T00:10:02.162Z,47.67
2023-04-03T00:11:06.618Z,47.44
2023-04-03T00:12:10.210Z,47.07
2023-04-03T00:13:14.544Z,47.25
2023-04-03T00:14:18.171Z,46.92
2023-04-03T00:15:21.899Z,47.47
2023-04-03T00:16:25.625Z,46.40
2023-04-03T00:17:29.295Z,47.11
2023-04-03T00:18:33.101Z,47.20
2023-04-03T00:19:36.770Z,46.91
2023-04-03T00:20:40.568Z,46.88
2023-04-03T00:21:44.185Z,46.91
2023-04-03T00:22:48.037Z,47.23
2023-04-03T00:23:51.686Z,46.73
2023-04-03T00:24:57.021Z,46.17
2023-04-03T00:26:00.686Z,46.31
2023-04-03T00:27:04.291Z,46.09
2023-04-03T00:28:07.999Z,46.47
2023-04-03T00:29:11.759Z,46.28
2023-04-03T00:30:17.240Z,46.40
2023-04-03T00:31:20.930Z,46.29
2023-04-03T00:32:24.622Z,46.15
2023-04-03T00:33:28.282Z,46.54
2023-04-03T00:34:32.081Z,46.15
2023-04-03T00:35:36.775Z,46.31
2023-04-03T00:36:40.570Z,45.58
2023-04-03T00:37:44.276Z,45.50
2023-04-03T00:38:47.903Z,45.58
2023-04-03T00:39:51.605Z,46.18
2023-04-03T00:40:56.917Z,46.09
2023-04-03T00:42:00.742Z,45.68
2023-04-03T00:43:12.859Z,45.44
2023-04-03T00:44:24.985Z,45.86
2023-04-03T00:45:35.412Z,45.67
2023-04-03T00:46:39.096Z,45.51
2023-04-03T00:47:43.760Z,45.43
2023-04-03T00:48:49.065Z,45.70
2023-04-03T00:49:53.970Z,44.84
2023-04-03T00:50:58.294Z,45.33
2023-04-03T00:52:02.360Z,45.14
2023-04-03T00:53:07.048Z,45.08
2023-04-03T00:54:10.883Z,44.44
2023-04-03T00:55:15.171Z,44.87
2023-04-03T00:56:24.599Z,45.20
2023-04-03T00:57:29.663Z,44.95
2023-04-03T00:58:39.037Z,43.97
2023-04-03T00:59:48.263Z,44.90
2023-04-03T01:00:57.423Z,44.95
2023-04-03T01:02:01.683Z,44.94
2023-04-03T01:03:05.532Z,45.00
2023-04-03T01:04:29.495Z,44.83
2023-04-03T01:05:37.010Z,44.81
2023-04-03T01:06:40.892Z,44.87
2023-04-03T01:07:45.319Z,44.72
2023-04-03T01:08:51.767Z,44.95
2023-04-03T01:09:58.388Z,44.92
2023-04-03T01:11:01.982Z,45.05
2023-04-03T01:12:22.748Z,44.80
2023-04-03T01:13:28.631Z,44.56
2023-04-03T01:14:32.229Z,44.75
2023-04-03T01:15:35.868Z,44.90
2023-04-03T01:16:39.544Z,45.37
2023-04-03T01:17:45.290Z,45.07
2023-04-03T01:18:49.374Z,45.16
2023-04-03T01:20:16.606Z,45.12
2023-04-03T01:21:51.093Z,44.59
2023-04-03T01:23:01.188Z,44.58
2023-04-03T01:24:18.396Z,44.78
2023-04-03T01:25:22.069Z,45.02
2023-04-03T01:26:26.409Z,44.97
2023-04-03T01:27:31.713Z,44.95
2023-04-03T01:28:37.565Z,44.75
2023-04-03T01:29:42.938Z,45.14
2023-04-03T01:30:52.238Z,44.79
2023-04-03T01:31:59.343Z,45.01
2023-04-03T01:33:03.025Z,45.11
2023-04-03T01:34:06.660Z,45.18
2023-04-03T01:35:12.165Z,44.35
2023-04-03T01:36:19.201Z,44.78
2023-04-03T01:37:22.810Z,44.87
2023-04-03T01:38:26.592Z,44.41
2023-04-03T01:39:30.268Z,44.77
2023-04-03T01:40:34.120Z,44.68
2023-04-03T01:41:37.928Z,44.34
2023-04-03T01:42:41.587Z,44.29
2023-04-03T01:43:45.570Z,44.09
2023-04-03T01:44:49.213Z,43.80
2023-04-03T01:45:52.855Z,43.44
2023-04-03T01:46:58.162Z,43.47
2023-04-03T01:48:01.777Z,43.06
2023-04-03T01:49:05.479Z,43.06
2023-04-03T01:50:09.556Z,42.53
2023-04-03T01:51:13.552Z,42.32
2023-04-03T01:52:17.212Z,41.90
2023-04-03T01:53:20.797Z,41.81
2023-04-03T01:54:24.376Z,41.21
2023-04-03T01:55:28.117Z,43.37
2023-04-03T01:56:31.815Z,42.68
2023-04-03T01:57:35.444Z,42.43
2023-04-03T01:58:39.164Z,42.19
2023-04-03T01:59:42.868Z,42.01
2023-04-03T02:00:46.551Z,42.52
2023-04-03T02:01:50.221Z,42.41
2023-04-03T02:02:55.704Z,41.03
2023-04-03T02:03:59.333Z,40.03
2023-04-03T02:05:03.117Z,41.19
2023-04-03T02:06:07.457Z,41.23
2023-04-03T02:07:11.174Z,40.68
2023-04-03T02:08:14.997Z,39.58
2023-04-03T02:09:18.657Z,39.71
2023-04-03T02:10:22.317Z,39.71
2023-04-03T02:11:25.935Z,39.83
2023-04-03T02:12:29.602Z,39.48
2023-04-03T02:13:33.309Z,39.22
2023-04-03T02:14:36.939Z,39.22
2023-04-03T02:15:40.835Z,39.16
2023-04-03T02:16:44.503Z,39.58
2023-04-03T02:17:48.192Z,39.22
2023-04-03T02:18:53.471Z,39.72
2023-04-03T02:19:57.097Z,39.43
2023-04-03T02:21:00.781Z,38.86
2023-04-03T02:22:04.623Z,38.06
2023-04-03T02:23:08.436Z,38.42
2023-04-03T02:24:12.040Z,38.75
2023-04-03T02:25:15.918Z,39.22
2023-04-03T02:26:19.567Z,38.89
2023-04-03T02:52:37.642Z,34.28
2023-04-03T02:53:41.293Z,32.13
2023-04-03T02:54:44.917Z,33.46
2023-04-03T02:55:49.058Z,31.46
2023-04-03T02:56:52.792Z,34.04
2023-04-03T02:57:56.483Z,32.47
2023-04-03T02:59:00.110Z,33.86
2023-04-03T03:00:03.851Z,32.50
2023-04-03T03:01:07.512Z,33.52
2023-04-03T03:02:11.725Z,31.83
2023-04-03T03:03:15.350Z,30.86
2023-04-03T03:04:18.955Z,31.98
2023-04-03T03:05:22.599Z,30.87
2023-04-03T03:06:26.250Z,29.41
2023-04-03T03:07:29.901Z,29.93
2023-04-03T03:08:35.597Z,31.29
2023-04-03T03:09:39.255Z,30.95
2023-04-03T03:10:42.972Z,29.36
2023-04-03T03:11:46.696Z,30.43
2023-04-03T03:12:50.515Z,28.91
2023-04-03T03:13:54.340Z,29.06
2023-04-03T03:14:57.958Z,30.62
2023-04-03T03:16:01.923Z,30.76
2023-04-03T03:17:05.613Z,29.66
2023-04-03T03:18:09.303Z,30.49
2023-04-03T03:19:13.019Z,30.87
2023-04-03T03:20:16.751Z,30.17
2023-04-03T03:21:20.429Z,29.59
2023-04-03T03:22:24.011Z,29.64
2023-04-03T03:23:29.192Z,29.96
2023-04-03T03:24:34.484Z,28.38
2023-04-03T03:25:40.951Z,28.92
2023-04-03T03:26:45.347Z,28.46
2023-04-03T03:27:49.018Z,28.33
2023-04-03T03:28:52.789Z,29.22
2023-04-03T03:29:56.375Z,28.58
2023-04-03T03:31:00.570Z,29.08
2023-04-03T03:32:04.254Z,28.87
2023-04-03T03:33:07.952Z,28.09
2023-04-03T03:34:11.538Z,27.99
2023-04-03T03:35:15.340Z,26.86
2023-04-03T03:36:19.105Z,27.37
2023-04-03T03:37:22.729Z,25.76
2023-04-03T03:38:26.797Z,25.06
2023-04-03T03:39:30.588Z,25.67
2023-04-03T03:40:35.927Z,24.42
2023-04-03T03:41:39.522Z,26.65
2023-04-03T03:42:43.146Z,24.60
2023-04-03T03:43:46.773Z,27.18
2023-04-03T03:44:50.382Z,26.63
2023-04-03T03:45:54.595Z,27.03
2023-04-03T03:46:58.508Z,27.28
2023-04-03T03:48:02.795Z,25.24
2023-04-03T03:49:09.730Z,26.19
2023-04-03T03:50:13.345Z,26.87
2023-04-03T03:51:17.297Z,24.02
2023-04-03T03:52:20.949Z,25.89
2023-04-03T03:53:24.612Z,23.71
2023-04-03T03:54:28.229Z,24.32
2023-04-03T03:55:31.889Z,25.87
2023-04-03T03:56:37.191Z,25.40
2023-04-03T03:57:40.951Z,23.07
2023-04-03T03:58:44.613Z,22.55
2023-04-03T03:59:48.265Z,22.99
2023-04-03T04:00:51.866Z,23.35
2023-04-03T04:01:55.735Z,22.87
2023-04-03T04:02:59.698Z,23.19
2023-04-03T04:04:06.254Z,21.57
2023-04-03T04:05:10.138Z,22.16
2023-04-03T04:06:13.782Z,22.94
2023-04-03T04:07:17.458Z,21.18
2023-04-03T04:08:21.097Z,21.93
2023-04-03T04:09:24.739Z,21.52
2023-04-03T04:10:28.459Z,22.67
2023-04-03T04:11:32.122Z,23.12
2023-04-03T04:12:37.516Z,23.06
2023-04-03T04:13:41.639Z,23.24
2023-04-03T04:14:45.330Z,22.86
2023-04-03T04:15:48.979Z,22.85
2023-04-03T04:16:52.631Z,23.72
2023-04-03T04:17:56.383Z,23.09
2023-04-03T04:19:00.031Z,23.54
2023-04-03T04:20:03.886Z,23.81
2023-04-03T04:21:07.556Z,22.59
2023-04-03T04:22:11.220Z,23.51
2023-04-03T04:23:14.919Z,22.79
2023-04-03T04:24:18.516Z,23.91
2023-04-03T04:25:22.171Z,22.76
2023-04-03T04:26:25.773Z,22.23
2023-04-03T04:27:29.381Z,23.30
2023-04-03T04:28:34.891Z,22.47
2023-04-03T04:29:38.551Z,22.70
2023-04-03T04:30:42.560Z,23.41
2023-04-03T04:31:46.190Z,22.01
2023-04-03T04:32:49.841Z,23.13
2023-04-03T04:33:53.620Z,22.12
2023-04-03T04:34:57.363Z,22.62
2023-04-03T04:36:01.181Z,22.53
2023-04-03T04:37:04.977Z,22.45
2023-04-03T04:38:08.663Z,22.00
2023-04-03T04:39:12.319Z,23.24
2023-04-03T04:40:16.284Z,22.47
2023-04-03T04:41:19.949Z,22.34
2023-04-03T04:42:23.641Z,21.95
2023-04-03T04:43:27.363Z,22.34
2023-04-03T04:44:32.682Z,22.87
2023-04-03T04:45:36.649Z,23.06
2023-04-03T04:46:40.480Z,22.71
2023-04-03T04:47:44.264Z,21.97
2023-04-03T04:48:50.482Z,23.17
2023-04-03T04:49:54.107Z,22.42
2023-04-03T04:50:57.850Z,22.45
2023-04-03T04:52:01.530Z,22.97
2023-04-03T04:53:05.282Z,23.71
2023-04-03T04:54:09.022Z,22.45
2023-04-03T04:55:12.609Z,22.44
2023-04-03T04:56:16.343Z,22.22
2023-04-03T04:57:19.971Z,22.36
2023-04-03T04:58:23.658Z,22.42
2023-04-03T04:59:27.462Z,22.05
2023-04-03T05:00:32.878Z,22.44
2023-04-03T05:01:36.654Z,22.38
2023-04-03T05:02:40.435Z,21.82
2023-04-03T05:03:44.059Z,22.54
2023-04-03T05:04:47.827Z,23.01
2023-04-03T05:05:51.532Z,21.86
2023-04-03T05:06:55.241Z,22.99
2023-04-03T05:07:58.938Z,23.40
2023-04-03T05:09:03.247Z,22.98
2023-04-03T05:10:08.112Z,22.82
2023-04-03T05:11:11.724Z,22.72
2023-04-03T05:12:15.336Z,22.98
2023-04-03T05:13:18.946Z,22.18
2023-04-03T05:14:22.656Z,22.26
2023-04-03T05:15:26.372Z,23.33
2023-04-03T05:16:31.713Z,22.68
2023-04-03T05:17:35.723Z,22.84
2023-04-03T05:18:39.379Z,22.86
2023-04-03T05:19:43.043Z,23.06
2023-04-03T05:20:46.765Z,22.90
2023-04-03T05:21:50.594Z,23.10
2023-04-03T05:22:54.255Z,23.27
2023-04-03T05:23:57.969Z,23.81
2023-04-03T05:25:01.642Z,22.94
2023-04-03T05:26:05.682Z,22.73
2023-04-03T05:27:09.316Z,23.61
2023-04-03T05:28:13.285Z,23.45
2023-04-03T05:29:16.939Z,23.26
2023-04-03T05:30:20.768Z,22.53
2023-04-03T05:31:24.613Z,23.38
2023-04-03T05:32:30.134Z,23.03
2023-04-03T05:33:33.759Z,22.37
2023-04-03T05:34:37.484Z,22.77
2023-04-03T05:35:41.276Z,23.30
2023-04-03T05:36:45.016Z,23.47
2023-04-03T05:37:48.806Z,23.11
2023-04-03T05:38:52.752Z,22.96
2023-04-03T05:39:56.639Z,23.77
2023-04-03T05:41:00.365Z,23.86
2023-04-03T05:42:03.937Z,25.23
2023-04-03T05:43:07.583Z,25.63
2023-04-03T05:44:11.779Z,26.58
2023-04-03T05:45:15.489Z,25.81
2023-04-03T05:46:20.898Z,26.01
2023-04-03T05:47:24.682Z,26.10
2023-04-03T05:48:30.079Z,25.93
2023-04-03T05:49:34.073Z,26.24
2023-04-03T05:50:37.761Z,25.72
2023-04-03T05:51:42.356Z,26.40
2023-04-03T05:52:50.164Z,25.79
2023-04-03T05:53:58.662Z,25.93
2023-04-03T05:55:02.506Z,26.23
2023-04-03T05:56:06.591Z,25.32
2023-04-03T05:57:10.313Z,25.72
2023-04-03T05:58:14.056Z,25.16
2023-04-03T05:59:17.996Z,25.21
2023-04-03T06:00:22.415Z,24.61
2023-04-03T06:01:26.048Z,24.58
2023-04-03T06:02:29.758Z,23.88
2023-04-03T06:03:36.527Z,24.41
2023-04-03T06:04:42.483Z,25.04
2023-04-03T06:05:46.163Z,24.82
2023-04-03T06:06:51.544Z,24.86
2023-04-03T06:07:55.227Z,27.80
2023-04-03T06:08:59.220Z,28.58
2023-04-03T06:10:03.494Z,29.71
2023-04-03T06:11:07.234Z,29.75
2023-04-03T06:12:11.498Z,30.71
2023-04-03T06:13:15.198Z,29.34
2023-04-03T06:14:18.884Z,29.24
2023-04-03T06:15:22.901Z,28.29
2023-04-03T06:16:26.649Z,28.00
2023-04-03T06:18:48.983Z,29.20
2023-04-03T06:19:52.590Z,29.78
2023-04-03T06:20:56.353Z,29.32
2023-04-03T06:22:00.334Z,29.48
2023-04-03T06:23:04.186Z,28.82
2023-04-03T06:24:08.659Z,29.47
2023-04-03T06:25:15.487Z,30.07
2023-04-03T06:26:19.351Z,29.00
2023-04-03T06:27:23.484Z,29.04
2023-04-03T06:28:27.443Z,29.43
2023-04-03T06:29:31.877Z,29.87
2023-04-03T06:30:35.635Z,29.32
2023-04-03T06:31:39.595Z,28.95
2023-04-03T06:32:43.289Z,28.43
2023-04-03T06:33:48.576Z,28.72
2023-04-03T06:34:52.239Z,28.12
2023-04-03T06:35:59.826Z,27.89
2023-04-03T06:37:03.849Z,28.49
2023-04-03T06:38:07.720Z,27.80
2023-04-03T06:39:15.199Z,28.30
2023-04-03T06:40:22.639Z,28.41
2023-04-03T06:41:26.633Z,29.92
2023-04-03T06:42:30.867Z,29.30
2023-04-03T06:43:35.022Z,29.30
2023-04-03T06:44:38.759Z,29.57
2023-04-03T06:45:42.428Z,29.66
2023-04-03T06:46:47.642Z,29.56
2023-04-03T06:47:51.451Z,30.82
2023-04-03T06:48:57.459Z,29.54
2023-04-03T06:50:01.220Z,29.63
2023-04-03T06:51:04.985Z,29.61
2023-04-03T06:52:12.265Z,30.14
2023-04-03T06:53:16.457Z,29.61
2023-04-03T06:54:22.858Z,29.97
2023-04-03T06:55:26.674Z,29.54
2023-04-03T06:56:30.744Z,28.93
2023-04-03T06:57:34.838Z,29.49
2023-04-03T06:58:38.526Z,30.25
2023-04-03T06:59:42.242Z,28.99
2023-04-03T07:00:45.906Z,29.14
2023-04-03T07:01:49.672Z,29.44
2023-04-03T07:02:53.572Z,29.29
2023-04-03T07:03:59.237Z,29.41
2023-04-03T07:05:02.855Z,29.36
2023-04-03T07:06:07.104Z,28.73
2023-04-03T07:07:10.788Z,29.32
2023-04-03T07:08:14.508Z,29.51
2023-04-03T07:09:18.180Z,29.23
2023-04-03T07:10:21.905Z,29.47
2023-04-03T07:11:25.592Z,28.94
2023-04-03T07:12:29.233Z,28.89
2023-04-03T07:13:33.005Z,28.21
2023-04-03T07:14:36.673Z,28.80
2023-04-03T07:15:40.527Z,28.75
2023-04-03T07:16:44.272Z,28.07
2023-04-03T07:17:47.971Z,27.79
2023-04-03T07:18:51.749Z,28.64
2023-04-03T07:19:56.983Z,29.22
2023-04-03T07:21:00.743Z,28.04
2023-04-03T07:22:04.358Z,28.43
2023-04-03T07:23:08.050Z,28.01
2023-04-03T07:24:15.070Z,28.49
2023-04-03T07:25:20.310Z,28.69
2023-04-03T07:26:24.275Z,27.59
2023-04-03T07:27:28.047Z,28.13
2023-04-03T07:28:31.725Z,28.60
2023-04-03T07:29:35.318Z,27.84
2023-04-03T07:30:45.458Z,27.33
2023-04-03T07:31:49.111Z,27.67
2023-04-03T07:32:52.803Z,28.16
2023-04-03T07:33:56.604Z,28.65
2023-04-03T07:35:02.586Z,28.25
2023-04-03T07:36:07.740Z,28.54
2023-04-03T07:37:11.856Z,28.14
2023-04-03T07:38:15.428Z,27.45
2023-04-03T07:39:19.191Z,27.87
2023-04-03T07:40:22.819Z,27.27
2023-04-03T07:41:26.626Z,27.40
2023-04-03T07:42:30.252Z,27.50
2023-04-03T07:43:34.123Z,27.56
2023-04-03T07:44:37.795Z,27.45
2023-04-03T07:45:41.515Z,27.27
2023-04-03T07:46:45.152Z,27.11
2023-04-03T07:47:49.294Z,27.70
2023-04-03T07:48:53.017Z,27.19
2023-04-03T07:49:56.809Z,27.36
2023-04-03T07:51:04.196Z,26.63
2023-04-03T07:52:08.436Z,26.87
2023-04-03T07:53:12.621Z,26.66
2023-04-03T07:54:16.301Z,25.91
2023-04-03T07:55:20.137Z,26.86
2023-04-03T07:56:23.879Z,26.62
2023-04-03T07:57:27.551Z,26.78
2023-04-03T07:58:31.931Z,26.81
2023-04-03T07:59:42.969Z,27.29
2023-04-03T08:00:53.044Z,26.98
2023-04-03T08:02:00.691Z,27.06
2023-04-03T08:03:04.650Z,27.76
2023-04-03T08:04:08.738Z,27.27
2023-04-03T08:05:12.725Z,27.43
2023-04-03T08:06:21.676Z,26.85
2023-04-03T08:07:30.048Z,27.39
2023-04-03T08:08:33.727Z,27.77
2023-04-03T08:09:37.536Z,27.59
2023-04-03T08:10:41.512Z,26.86
2023-04-03T08:11:45.403Z,26.73
2023-04-03T08:12:49.844Z,27.49
2023-04-03T08:13:53.670Z,27.22
2023-04-03T08:14:57.634Z,27.49
2023-04-03T08:16:10.287Z,27.16
2023-04-03T08:17:14.036Z,27.19
2023-04-03T08:18:17.977Z,27.33
2023-04-03T08:20:30.954Z,27.16
2023-04-03T08:21:36.498Z,27.17
2023-04-03T08:22:40.319Z,27.30
2023-04-03T08:23:44.243Z,26.44
2023-04-03T08:24:58.418Z,27.79
2023-04-03T08:26:08.938Z,26.87
2023-04-03T08:27:12.918Z,27.02
2023-04-03T08:28:16.641Z,26.14
2023-04-03T08:29:20.328Z,26.61
2023-04-03T08:30:24.008Z,27.04
2023-04-03T08:31:27.882Z,26.93
2023-04-03T08:32:31.866Z,26.52
2023-04-03T08:33:36.208Z,26.67
2023-04-03T08:34:40.111Z,27.01
2023-04-03T08:35:44.817Z,26.65
2023-04-03T08:36:50.294Z,27.17
2023-04-03T08:37:53.933Z,26.83
2023-04-03T08:38:58.634Z,27.12
2023-04-03T08:40:02.323Z,27.27
2023-04-03T08:41:13.945Z,26.78
2023-04-03T08:42:23.044Z,27.04
2023-04-03T08:43:36.656Z,26.88
2023-04-03T08:44:48.115Z,27.04
2023-04-03T08:45:54.524Z,26.78
2023-04-03T08:47:19.944Z,26.84
2023-04-03T08:48:28.910Z,26.24
2023-04-03T08:49:35.327Z,26.95
2023-04-03T08:50:43.091Z,26.68
2023-04-03T08:51:51.119Z,26.71
2023-04-03T08:52:57.620Z,26.94
2023-04-03T08:54:06.162Z,26.75
2023-04-03T08:55:21.625Z,26.45
2023-04-03T08:56:27.208Z,26.73
2023-04-03T08:57:33.306Z,26.59
2023-04-03T08:58:47.505Z,26.52
2023-04-03T08:59:51.408Z,26.80
2023-04-03T09:01:00.196Z,26.48
2023-04-03T09:02:15.580Z,26.57
2023-04-03T09:03:20.887Z,26.62
2023-04-03T09:04:24.920Z,26.08
2023-04-03T09:05:41.213Z,26.11
2023-04-03T09:06:47.724Z,27.22
2023-04-03T09:08:01.441Z,26.17
2023-04-03T09:09:15.479Z,25.89
2023-04-03T09:10:25.831Z,25.84
2023-04-03T09:11:38.438Z,26.12
2023-04-03T09:12:46.920Z,25.71
2023-04-03T09:13:56.253Z,25.83
2023-04-03T09:15:07.466Z,26.14
2023-04-03T09:16:30.142Z,25.70
2023-04-03T09:17:44.145Z,25.61
2023-04-03T09:18:50.610Z,26.21
2023-04-03T09:20:00.125Z,26.69
2023-04-03T09:21:11.985Z,25.34
2023-04-03T09:22:20.469Z,25.80
2023-04-03T09:23:30.419Z,25.82
2023-04-03T09:24:34.935Z,26.14
2023-04-03T09:25:40.440Z,26.20
2023-04-03T09:26:48.099Z,26.16
2023-04-03T09:27:52.016Z,25.89
2023-04-03T09:28:58.786Z,26.10
2023-04-03T09:30:02.502Z,26.60
2023-04-03T09:31:20.553Z,25.95
2023-04-03T09:32:29.204Z,26.65
2023-04-03T09:33:33.006Z,26.42
2023-04-03T09:34:39.012Z,26.07
2023-04-03T09:35:48.541Z,26.43
2023-04-03T09:36:54.487Z,26.74
2023-04-03T09:38:01.810Z,25.55
2023-04-03T09:39:11.773Z,26.42
2023-04-03T09:40:37.340Z,26.21
2023-04-03T09:41:41.248Z,26.63
2023-04-03T09:42:48.920Z,26.32
2023-04-03T09:43:56.551Z,26.11
2023-04-03T09:45:01.815Z,25.65
2023-04-03T09:46:30.081Z,26.18
2023-04-03T09:47:35.128Z,25.75
2023-04-03T09:48:38.907Z,26.37
2023-04-03T09:49:42.930Z,26.27
2023-04-03T09:51:01.130Z,25.65
2023-04-03T09:52:21.427Z,25.53
2023-04-03T09:53:30.976Z,25.56
2023-04-03T09:54:39.041Z,25.65
2023-04-03T09:55:45.703Z,25.51
2023-04-03T09:56:53.323Z,25.29
2023-04-03T09:57:59.159Z,25.62
2023-04-03T09:59:20.844Z,25.90
2023-04-03T10:00:26.994Z,25.99
2023-04-03T10:01:32.539Z,25.81
2023-04-03T10:02:40.602Z,26.00
2023-04-03T10:03:44.459Z,25.81
2023-04-03T10:04:53.009Z,25.68
2023-04-03T10:06:03.953Z,25.90
2023-04-03T10:07:32.330Z,25.47
2023-04-03T10:08:36.901Z,26.23
2023-04-03T10:09:42.236Z,25.71
2023-04-03T10:10:47.871Z,25.57
2023-04-03T10:12:12.834Z,26.05
2023-04-03T10:13:21.041Z,25.81
2023-04-03T10:14:25.144Z,25.09
2023-04-03T10:15:30.224Z,26.07
2023-04-03T10:16:43.508Z,26.15
2023-04-03T10:18:06.530Z,26.60
2023-04-03T10:19:36.347Z,26.07
2023-04-03T10:20:45.432Z,26.44
2023-04-03T10:21:55.232Z,25.91
2023-04-03T10:23:08.477Z,26.55
2023-04-03T10:24:16.093Z,27.01
2023-04-03T10:25:31.345Z,26.03
2023-04-03T10:26:43.949Z,26.84
2023-04-03T10:27:55.711Z,26.96
2023-04-03T10:29:10.103Z,25.78
2023-04-03T10:30:30.276Z,26.71
2023-04-03T10:31:44.405Z,27.30
2023-04-03T10:32:59.745Z,27.37
2023-04-03T10:34:07.182Z,26.11
2023-04-03T10:35:20.105Z,27.17
2023-04-03T10:36:35.893Z,27.29
2023-04-03T10:37:52.639Z,27.24
2023-04-03T10:39:08.571Z,27.22
2023-04-03T10:40:24.941Z,27.08
2023-04-03T10:41:36.270Z,26.54
2023-04-03T10:42:48.212Z,26.68
2023-04-03T10:44:03.739Z,25.84
2023-04-03T10:45:22.778Z,26.46
2023-04-03T10:46:35.924Z,26.44
2023-04-03T10:47:47.934Z,26.13
2023-04-03T10:49:05.609Z,25.70
2023-04-03T10:50:28.353Z,26.41
2023-04-03T10:51:39.417Z,26.66
2023-04-03T10:52:49.940Z,26.72
2023-04-03T10:54:01.984Z,26.11
2023-04-03T10:55:18.868Z,26.36
2023-04-03T10:56:38.888Z,26.04
2023-04-03T10:57:43.002Z,26.70
2023-04-03T10:58:50.315Z,26.68
